sensor_id;sensor_type;location;lat;lon;timestamp;pressure;altitude;pressure_sealevel;temperature;humidity
20444;BME280;10381;53.730;10.010;2023-04-15T00:03:09;100642.13;;;6.07;100.00
20444;BME280;10381;53.730;10.010;2023-04-15T00:07:09;100639.25;;;6.10;100.00
20444;BME280;10381;53.730;10.010;2023-04-15T00:11:10;100630.03;;;6.04;100.00
20444;BME280;10381;53.730;10.010;2023-04-15T00:15:10;100631.09;;;6.02;100.00
20444;BME280;10381;53.730;10.010;2023-04-15T00:19:11;100624.88;;;6.03;100.00
20444;BME280;10381;53.730;10.010;2023-04-15T00:23:12;100622.13;;;6.04;100.00
20444;BME280;10381;53.730;10.010;2023-04-15T00:27:12;100622.75;;;6.08;100.00
20444;BME280;10381;53.730;10.010;2023-04-15T00:31:13;100627.91;;;6.09;100.00
20444;BME280;10381;53.730;10.010;2023-04-15T00:35:14;100625.88;;;6.13;100.00
20444;BME280;10381;53.730;10.010;2023-04-15T00:39:14;100628.41;;;6.14;100.00
20444;BME280;10381;53.730;10.010;2023-04-15T00:43:15;100631.88;;;6.15;100.00
20444;BME280;10381;53.730;10.010;2023-04-15T00:47:17;100631.38;;;6.10;100.00
20444;BME280;10381;53.730;10.010;2023-04-15T00:51:17;100634.97;;;6.09;100.00
20444;BME280;10381;53.730;10.010;2023-04-15T00:55:18;100628.63;;;6.11;100.00
20444;BME280;10381;53.730;10.010;2023-04-15T00:59:19;100636.41;;;6.13;100.00
20444;BME280;10381;53.730;10.010;2023-04-15T01:03:19;100637.25;;;6.13;100.00
20444;BME280;10381;53.730;10.010;2023-04-15T01:07:20;100643.13;;;6.17;100.00
20444;BME280;10381;53.730;10.010;2023-04-15T01:11:21;100648.47;;;6.15;100.00
20444;BME280;10381;53.730;10.010;2023-04-15T01:15:23;100641.56;;;6.14;100.00
20444;BME280;10381;53.730;10.010;2023-04-15T01:19:24;100631.53;;;6.19;100.00
20444;BME280;10381;53.730;10.010;2023-04-15T01:23:24;100628.31;;;6.16;100.00
20444;BME280;10381;53.730;10.010;2023-04-15T01:27:25;100629.53;;;6.23;100.00
20444;BME280;10381;53.730;10.010;2023-04-15T01:31:25;100631.31;;;6.23;100.00
20444;BME280;10381;53.730;10.010;2023-04-15T01:35:26;100630.47;;;6.22;100.00
20444;BME280;10381;53.730;10.010;2023-04-15T01:39:26;100632.50;;;6.18;100.00
20444;BME280;10381;53.730;10.010;2023-04-15T01:43:27;100624.47;;;6.20;100.00
20444;BME280;10381;53.730;10.010;2023-04-15T01:47:27;100608.50;;;6.23;100.00
20444;BME280;10381;53.730;10.010;2023-04-15T01:51:27;100615.09;;;6.29;100.00
20444;BME280;10381;53.730;10.010;2023-04-15T01:55:28;100605.63;;;6.26;100.00
20444;BME280;10381;53.730;10.010;2023-04-15T01:59:29;100602.03;;;6.27;100.00
20444;BME280;10381;53.730;10.010;2023-04-15T02:03:30;100596.78;;;6.27;100.00
20444;BME280;10381;53.730;10.010;2023-04-15T02:07:30;100592.56;;;6.25;100.00
20444;BME280;10381;53.730;10.010;2023-04-15T02:11:31;100595.94;;;6.27;100.00
20444;BME280;10381;53.730;10.010;2023-04-15T02:15:32;100593.22;;;6.28;100.00
20444;BME280;10381;53.730;10.010;2023-04-15T02:19:35;100597.50;;;6.29;100.00
20444;BME280;10381;53.730;10.010;2023-04-15T02:23:42;100596.34;;;6.33;100.00
20444;BME280;10381;53.730;10.010;2023-04-15T02:27:43;100597.56;;;6.40;100.00
20444;BME280;10381;53.730;10.010;2023-04-15T02:31:43;100599.03;;;6.45;100.00
20444;BME280;10381;53.730;10.010;2023-04-15T02:35:44;100598.41;;;6.41;100.00
20444;BME280;10381;53.730;10.010;2023-04-15T02:39:45;100592.53;;;6.37;100.00
20444;BME280;10381;53.730;10.010;2023-04-15T02:43:45;100590.59;;;6.39;100.00
20444;BME280;10381;53.730;10.010;2023-04-15T02:47:46;100583.44;;;6.42;100.00
20444;BME280;10381;53.730;10.010;2023-04-15T02:51:46;100582.84;;;6.38;100.00
20444;BME280;10381;53.730;10.010;2023-04-15T02:55:48;100588.72;;;6.42;100.00
20444;BME280;10381;53.730;10.010;2023-04-15T02:59:48;100594.38;;;6.48;100.00
20444;BME280;10381;53.730;10.010;2023-04-15T03:03:49;100594.84;;;6.53;100.00
20444;BME280;10381;53.730;10.010;2023-04-15T03:07:49;100588.03;;;6.51;100.00
20444;BME280;10381;53.730;10.010;2023-04-15T03:11:50;100598.56;;;6.51;100.00
20444;BME280;10381;53.730;10.010;2023-04-15T03:15:52;100607.78;;;6.56;100.00
20444;BME280;10381;53.730;10.010;2023-04-15T03:19:52;100601.56;;;6.57;100.00
20444;BME280;10381;53.730;10.010;2023-04-15T03:23:53;100601.84;;;6.66;100.00
20444;BME280;10381;53.730;10.010;2023-04-15T03:27:53;100603.63;;;6.65;100.00
20444;BME280;10381;53.730;10.010;2023-04-15T03:31:53;100593.81;;;6.67;100.00
20444;BME280;10381;53.730;10.010;2023-04-15T03:35:53;100597.19;;;6.69;100.00
20444;BME280;10381;53.730;10.010;2023-04-15T03:39:54;100590.38;;;6.67;100.00
20444;BME280;10381;53.730;10.010;2023-04-15T03:43:54;100586.28;;;6.63;100.00
20444;BME280;10381;53.730;10.010;2023-04-15T03:47:55;100577.31;;;6.65;100.00
20444;BME280;10381;53.730;10.010;2023-04-15T03:51:55;100583.41;;;6.66;100.00
20444;BME280;10381;53.730;10.010;2023-04-15T03:55:55;100579.50;;;6.71;100.00
20444;BME280;10381;53.730;10.010;2023-04-15T03:59:55;100587.03;;;6.76;100.00
20444;BME280;10381;53.730;10.010;2023-04-15T04:03:56;100584.50;;;6.74;100.00
20444;BME280;10381;53.730;10.010;2023-04-15T04:07:56;100597.69;;;6.74;100.00
20444;BME280;10381;53.730;10.010;2023-04-15T04:11:56;100600.22;;;6.76;100.00
20444;BME280;10381;53.730;10.010;2023-04-15T04:15:57;100599.25;;;6.77;100.00
20444;BME280;10381;53.730;10.010;2023-04-15T04:19:57;100600.31;;;6.74;100.00
20444;BME280;10381;53.730;10.010;2023-04-15T04:23:57;100605.56;;;6.74;100.00
20444;BME280;10381;53.730;10.010;2023-04-15T04:27:58;100603.69;;;6.76;100.00
20444;BME280;10381;53.730;10.010;2023-04-15T04:31:58;100604.59;;;6.75;100.00
20444;BME280;10381;53.730;10.010;2023-04-15T04:35:58;100599.13;;;6.78;100.00
20444;BME280;10381;53.730;10.010;2023-04-15T04:39:59;100597.44;;;6.77;100.00
20444;BME280;10381;53.730;10.010;2023-04-15T04:43:59;100599.97;;;6.79;100.00
20444;BME280;10381;53.730;10.010;2023-04-15T04:47:59;100613.97;;;6.79;100.00
20444;BME280;10381;53.730;10.010;2023-04-15T04:52:00;100608.69;;;6.79;100.00
20444;BME280;10381;53.730;10.010;2023-04-15T04:56:00;100606.66;;;6.83;100.00
20444;BME280;10381;53.730;10.010;2023-04-15T05:00:01;100614.22;;;6.76;100.00
20444;BME280;10381;53.730;10.010;2023-04-15T05:04:03;100605.09;;;6.80;100.00
20444;BME280;10381;53.730;10.010;2023-04-15T05:08:04;100596.25;;;6.81;100.00
20444;BME280;10381;53.730;10.010;2023-04-15T05:12:04;100601.03;;;6.88;100.00
20444;BME280;10381;53.730;10.010;2023-04-15T05:16:05;100595.56;;;6.91;100.00
20444;BME280;10381;53.730;10.010;2023-04-15T05:20:06;100598.31;;;6.89;100.00
20444;BME280;10381;53.730;10.010;2023-04-15T05:24:06;100597.50;;;7.00;100.00
20444;BME280;10381;53.730;10.010;2023-04-15T05:28:06;100587.66;;;7.02;100.00
20444;BME280;10381;53.730;10.010;2023-04-15T05:32:07;100604.09;;;7.06;100.00
20444;BME280;10381;53.730;10.010;2023-04-15T05:36:07;100606.38;;;7.10;100.00
20444;BME280;10381;53.730;10.010;2023-04-15T05:40:08;100613.31;;;7.11;100.00
20444;BME280;10381;53.730;10.010;2023-04-15T05:44:09;100617.50;;;7.14;100.00
20444;BME280;10381;53.730;10.010;2023-04-15T05:48:10;100615.00;;;7.12;100.00
20444;BME280;10381;53.730;10.010;2023-04-15T05:52:10;100613.06;;;7.14;100.00
20444;BME280;10381;53.730;10.010;2023-04-15T05:56:10;100617.03;;;7.20;100.00
20444;BME280;10381;53.730;10.010;2023-04-15T06:00:11;100617.78;;;7.22;100.00
20444;BME280;10381;53.730;10.010;2023-04-15T06:04:12;100612.72;;;7.19;100.00
20444;BME280;10381;53.730;10.010;2023-04-15T06:08:12;100621.13;;;7.24;100.00
20444;BME280;10381;53.730;10.010;2023-04-15T06:12:13;100629.38;;;7.31;100.00
20444;BME280;10381;53.730;10.010;2023-04-15T06:16:13;100626.53;;;7.34;100.00
20444;BME280;10381;53.730;10.010;2023-04-15T06:20:13;100626.88;;;7.40;100.00
20444;BME280;10381;53.730;10.010;2023-04-15T06:24:14;100641.13;;;7.38;100.00
20444;BME280;10381;53.730;10.010;2023-04-15T06:28:14;100646.19;;;7.41;100.00
20444;BME280;10381;53.730;10.010;2023-04-15T06:32:14;100651.94;;;7.46;100.00
20444;BME280;10381;53.730;10.010;2023-04-15T06:36:15;100655.13;;;7.38;100.00
20444;BME280;10381;53.730;10.010;2023-04-15T06:40:16;100653.84;;;7.44;100.00
20444;BME280;10381;53.730;10.010;2023-04-15T06:44:16;100647.50;;;7.46;100.00
20444;BME280;10381;53.730;10.010;2023-04-15T06:48:17;100654.31;;;7.49;100.00
20444;BME280;10381;53.730;10.010;2023-04-15T06:52:18;100659.25;;;7.54;100.00
20444;BME280;10381;53.730;10.010;2023-04-15T06:56:18;100673.63;;;7.61;100.00
20444;BME280;10381;53.730;10.010;2023-04-15T07:00:18;100669.81;;;7.65;100.00
20444;BME280;10381;53.730;10.010;2023-04-15T07:04:19;100676.00;;;7.64;100.00
20444;BME280;10381;53.730;10.010;2023-04-15T07:08:19;100678.41;;;7.67;100.00
20444;BME280;10381;53.730;10.010;2023-04-15T07:12:20;100688.63;;;7.60;100.00
20444;BME280;10381;53.730;10.010;2023-04-15T07:16:20;100682.47;;;7.60;100.00
20444;BME280;10381;53.730;10.010;2023-04-15T07:20:21;100679.28;;;7.67;100.00
20444;BME280;10381;53.730;10.010;2023-04-15T07:24:21;100684.03;;;7.74;100.00
20444;BME280;10381;53.730;10.010;2023-04-15T07:28:26;100691.09;;;7.62;100.00
20444;BME280;10381;53.730;10.010;2023-04-15T07:32:26;100688.50;;;7.73;100.00
20444;BME280;10381;53.730;10.010;2023-04-15T07:36:26;100691.03;;;7.75;100.00
20444;BME280;10381;53.730;10.010;2023-04-15T07:40:28;100701.19;;;7.68;100.00
20444;BME280;10381;53.730;10.010;2023-04-15T07:44:28;100700.22;;;7.69;100.00
20444;BME280;10381;53.730;10.010;2023-04-15T07:48:29;100702.53;;;7.85;100.00
20444;BME280;10381;53.730;10.010;2023-04-15T07:52:29;100712.00;;;7.87;100.00
20444;BME280;10381;53.730;10.010;2023-04-15T07:56:30;100715.00;;;7.94;100.00
20444;BME280;10381;53.730;10.010;2023-04-15T08:00:30;100711.75;;;8.02;100.00
20444;BME280;10381;53.730;10.010;2023-04-15T08:04:31;100711.50;;;8.16;100.00
20444;BME280;10381;53.730;10.010;2023-04-15T08:08:32;100708.25;;;8.24;100.00
20444;BME280;10381;53.730;10.010;2023-04-15T08:12:33;100711.09;;;8.32;100.00
20444;BME280;10381;53.730;10.010;2023-04-15T08:16:33;100718.09;;;8.44;100.00
20444;BME280;10381;53.730;10.010;2023-04-15T08:20:33;100709.69;;;8.28;100.00
20444;BME280;10381;53.730;10.010;2023-04-15T08:24:34;100715.19;;;8.36;100.00
20444;BME280;10381;53.730;10.010;2023-04-15T08:28:34;100724.06;;;8.46;100.00
20444;BME280;10381;53.730;10.010;2023-04-15T08:32:35;100719.72;;;8.57;100.00
20444;BME280;10381;53.730;10.010;2023-04-15T08:36:35;100714.78;;;8.63;100.00
20444;BME280;10381;53.730;10.010;2023-04-15T08:40:43;100709.50;;;8.63;100.00
20444;BME280;10381;53.730;10.010;2023-04-15T08:44:45;100705.19;;;8.51;100.00
20444;BME280;10381;53.730;10.010;2023-04-15T08:48:47;100715.81;;;8.83;100.00
20444;BME280;10381;53.730;10.010;2023-04-15T08:52:48;100713.63;;;8.88;100.00
20444;BME280;10381;53.730;10.010;2023-04-15T08:56:48;100712.25;;;8.94;100.00
20444;BME280;10381;53.730;10.010;2023-04-15T09:00:49;100714.34;;;9.11;100.00
20444;BME280;10381;53.730;10.010;2023-04-15T09:04:49;100721.97;;;9.47;100.00
20444;BME280;10381;53.730;10.010;2023-04-15T09:08:50;100715.44;;;9.51;100.00
20444;BME280;10381;53.730;10.010;2023-04-15T09:12:51;100712.03;;;9.60;100.00
20444;BME280;10381;53.730;10.010;2023-04-15T09:16:59;100708.13;;;9.95;100.00
20444;BME280;10381;53.730;10.010;2023-04-15T09:21:11;100697.47;;;10.95;100.00
20444;BME280;10381;53.730;10.010;2023-04-15T09:29:14;100679.63;;;10.97;100.00
20444;BME280;10381;53.730;10.010;2023-04-15T09:33:15;100679.75;;;10.96;100.00
20444;BME280;10381;53.730;10.010;2023-04-15T09:37:15;100681.06;;;11.39;100.00
20444;BME280;10381;53.730;10.010;2023-04-15T09:41:17;100674.78;;;11.87;100.00
20444;BME280;10381;53.730;10.010;2023-04-15T09:45:19;100674.50;;;12.18;100.00
20444;BME280;10381;53.730;10.010;2023-04-15T09:49:19;100679.53;;;12.39;100.00
20444;BME280;10381;53.730;10.010;2023-04-15T09:53:21;100675.81;;;12.31;100.00
20444;BME280;10381;53.730;10.010;2023-04-15T09:57:21;100679.78;;;12.63;100.00
20444;BME280;10381;53.730;10.010;2023-04-15T10:01:22;100679.16;;;12.33;100.00
20444;BME280;10381;53.730;10.010;2023-04-15T10:05:23;100683.94;;;12.84;100.00
20444;BME280;10381;53.730;10.010;2023-04-15T10:09:25;100691.50;;;13.32;100.00
20444;BME280;10381;53.730;10.010;2023-04-15T10:13:29;100680.56;;;12.55;100.00
20444;BME280;10381;53.730;10.010;2023-04-15T10:17:33;100684.63;;;12.50;100.00
20444;BME280;10381;53.730;10.010;2023-04-15T10:21:36;100697.09;;;12.49;100.00
20444;BME280;10381;53.730;10.010;2023-04-15T10:25:37;100690.03;;;12.76;100.00
20444;BME280;10381;53.730;10.010;2023-04-15T10:29:37;100702.31;;;13.31;100.00
20444;BME280;10381;53.730;10.010;2023-04-15T10:33:38;100694.63;;;13.54;100.00
20444;BME280;10381;53.730;10.010;2023-04-15T10:37:38;100696.72;;;13.42;100.00
20444;BME280;10381;53.730;10.010;2023-04-15T10:41:39;100697.00;;;13.13;100.00
20444;BME280;10381;53.730;10.010;2023-04-15T10:45:43;100689.06;;;13.99;100.00
20444;BME280;10381;53.730;10.010;2023-04-15T10:49:54;100699.09;;;13.45;100.00
20444;BME280;10381;53.730;10.010;2023-04-15T10:53:58;100684.84;;;13.28;100.00
20444;BME280;10381;53.730;10.010;2023-04-15T10:57:59;100696.31;;;14.23;100.00
20444;BME280;10381;53.730;10.010;2023-04-15T11:02:02;100699.78;;;14.16;100.00
20444;BME280;10381;53.730;10.010;2023-04-15T11:06:04;100688.53;;;14.38;100.00
20444;BME280;10381;53.730;10.010;2023-04-15T11:14:17;100697.06;;;13.39;100.00
20444;BME280;10381;53.730;10.010;2023-04-15T11:18:25;100700.34;;;13.59;100.00
20444;BME280;10381;53.730;10.010;2023-04-15T11:22:27;100703.25;;;13.74;100.00
20444;BME280;10381;53.730;10.010;2023-04-15T11:26:27;100713.69;;;13.67;100.00
20444;BME280;10381;53.730;10.010;2023-04-15T11:30:32;100716.31;;;13.33;100.00
20444;BME280;10381;53.730;10.010;2023-04-15T11:34:33;100707.25;;;13.26;100.00
20444;BME280;10381;53.730;10.010;2023-04-15T11:38:35;100723.00;;;13.19;100.00
20444;BME280;10381;53.730;10.010;2023-04-15T11:42:37;100720.22;;;13.47;100.00
20444;BME280;10381;53.730;10.010;2023-04-15T11:46:37;100741.31;;;13.66;100.00
20444;BME280;10381;53.730;10.010;2023-04-15T11:50:38;100746.78;;;13.20;100.00
20444;BME280;10381;53.730;10.010;2023-04-15T11:54:40;100753.19;;;13.28;100.00
20444;BME280;10381;53.730;10.010;2023-04-15T11:58:40;100754.81;;;13.47;100.00
20444;BME280;10381;53.730;10.010;2023-04-15T12:02:42;100759.94;;;13.40;100.00
20444;BME280;10381;53.730;10.010;2023-04-15T12:06:43;100752.16;;;13.47;100.00
20444;BME280;10381;53.730;10.010;2023-04-15T12:10:43;100760.31;;;13.27;100.00
20444;BME280;10381;53.730;10.010;2023-04-15T12:14:44;100766.06;;;13.22;100.00
20444;BME280;10381;53.730;10.010;2023-04-15T12:18:45;100765.88;;;13.34;100.00
20444;BME280;10381;53.730;10.010;2023-04-15T12:22:46;100781.91;;;13.68;100.00
20444;BME280;10381;53.730;10.010;2023-04-15T12:26:49;100772.28;;;13.49;100.00
20444;BME280;10381;53.730;10.010;2023-04-15T12:30:50;100778.53;;;13.84;100.00
20444;BME280;10381;53.730;10.010;2023-04-15T12:34:56;100795.31;;;13.22;100.00
20444;BME280;10381;53.730;10.010;2023-04-15T12:38:57;100778.78;;;12.75;100.00
20444;BME280;10381;53.730;10.010;2023-04-15T12:42:57;100796.13;;;12.69;100.00
20444;BME280;10381;53.730;10.010;2023-04-15T12:46:58;100783.41;;;12.91;100.00
20444;BME280;10381;53.730;10.010;2023-04-15T12:50:59;100797.19;;;13.40;100.00
20444;BME280;10381;53.730;10.010;2023-04-15T12:54:59;100809.25;;;13.96;100.00
20444;BME280;10381;53.730;10.010;2023-04-15T12:59:00;100806.53;;;13.88;100.00
20444;BME280;10381;53.730;10.010;2023-04-15T13:03:00;100811.00;;;13.43;100.00
20444;BME280;10381;53.730;10.010;2023-04-15T13:07:01;100814.22;;;13.29;100.00
20444;BME280;10381;53.730;10.010;2023-04-15T13:11:02;100811.47;;;13.57;100.00
20444;BME280;10381;53.730;10.010;2023-04-15T13:15:03;100814.41;;;13.72;100.00
20444;BME280;10381;53.730;10.010;2023-04-15T13:19:04;100822.81;;;13.85;100.00
20444;BME280;10381;53.730;10.010;2023-04-15T13:23:04;100827.63;;;13.37;100.00
20444;BME280;10381;53.730;10.010;2023-04-15T13:27:04;100838.19;;;13.47;100.00
20444;BME280;10381;53.730;10.010;2023-04-15T13:31:06;100840.66;;;13.67;100.00
20444;BME280;10381;53.730;10.010;2023-04-15T13:35:06;100832.16;;;14.15;100.00
20444;BME280;10381;53.730;10.010;2023-04-15T13:39:07;100830.38;;;13.72;100.00
20444;BME280;10381;53.730;10.010;2023-04-15T13:43:07;100838.84;;;13.93;100.00
20444;BME280;10381;53.730;10.010;2023-04-15T13:47:08;100845.06;;;14.02;100.00
20444;BME280;10381;53.730;10.010;2023-04-15T13:51:08;100843.88;;;13.52;100.00
20444;BME280;10381;53.730;10.010;2023-04-15T13:55:09;100856.97;;;13.28;100.00
20444;BME280;10381;53.730;10.010;2023-04-15T13:59:10;100859.63;;;13.00;100.00
20444;BME280;10381;53.730;10.010;2023-04-15T14:03:10;100867.59;;;13.18;100.00
20444;BME280;10381;53.730;10.010;2023-04-15T14:07:11;100866.22;;;13.41;100.00
20444;BME280;10381;53.730;10.010;2023-04-15T14:11:11;100868.53;;;13.27;100.00
20444;BME280;10381;53.730;10.010;2023-04-15T14:15:11;100875.13;;;13.50;100.00
20444;BME280;10381;53.730;10.010;2023-04-15T14:19:12;100883.78;;;13.52;100.00
20444;BME280;10381;53.730;10.010;2023-04-15T14:23:12;100884.72;;;13.15;100.00
20444;BME280;10381;53.730;10.010;2023-04-15T14:27:13;100884.94;;;13.04;100.00
20444;BME280;10381;53.730;10.010;2023-04-15T14:31:13;100883.09;;;13.32;100.00
20444;BME280;10381;53.730;10.010;2023-04-15T14:35:13;100893.06;;;13.48;100.00
20444;BME280;10381;53.730;10.010;2023-04-15T14:39:14;100895.41;;;13.51;100.00
20444;BME280;10381;53.730;10.010;2023-04-15T14:43:14;100902.06;;;13.47;100.00
20444;BME280;10381;53.730;10.010;2023-04-15T14:47:14;100913.72;;;13.36;100.00
20444;BME280;10381;53.730;10.010;2023-04-15T14:51:15;100919.28;;;13.61;100.00
20444;BME280;10381;53.730;10.010;2023-04-15T14:55:15;100921.50;;;13.48;100.00
20444;BME280;10381;53.730;10.010;2023-04-15T14:59:16;100914.88;;;13.06;100.00
20444;BME280;10381;53.730;10.010;2023-04-15T15:03:16;100920.69;;;13.19;100.00
20444;BME280;10381;53.730;10.010;2023-04-15T15:07:17;100931.75;;;13.15;100.00
20444;BME280;10381;53.730;10.010;2023-04-15T15:11:17;100926.59;;;12.58;100.00
20444;BME280;10381;53.730;10.010;2023-04-15T15:15:17;100937.31;;;12.66;100.00
20444;BME280;10381;53.730;10.010;2023-04-15T15:19:18;100937.66;;;12.81;100.00
20444;BME280;10381;53.730;10.010;2023-04-15T15:23:18;100949.38;;;12.61;100.00
20444;BME280;10381;53.730;10.010;2023-04-15T15:27:18;100947.34;;;12.25;100.00
20444;BME280;10381;53.730;10.010;2023-04-15T15:31:19;100953.22;;;12.19;100.00
20444;BME280;10381;53.730;10.010;2023-04-15T15:35:19;100959.94;;;12.13;100.00
20444;BME280;10381;53.730;10.010;2023-04-15T15:39:22;100960.94;;;12.12;100.00
20444;BME280;10381;53.730;10.010;2023-04-15T15:43:22;100958.56;;;12.00;100.00
20444;BME280;10381;53.730;10.010;2023-04-15T15:47:23;100968.06;;;11.92;100.00
20444;BME280;10381;53.730;10.010;2023-04-15T15:51:25;100977.25;;;11.79;100.00
20444;BME280;10381;53.730;10.010;2023-04-15T15:55:26;100990.38;;;11.70;100.00
20444;BME280;10381;53.730;10.010;2023-04-15T15:59:26;100988.53;;;11.61;100.00
20444;BME280;10381;53.730;10.010;2023-04-15T16:03:27;100997.59;;;11.49;100.00
20444;BME280;10381;53.730;10.010;2023-04-15T16:07:27;100997.56;;;11.39;100.00
20444;BME280;10381;53.730;10.010;2023-04-15T16:11:28;101008.19;;;11.39;100.00
20444;BME280;10381;53.730;10.010;2023-04-15T16:15:28;101017.97;;;11.39;100.00
20444;BME280;10381;53.730;10.010;2023-04-15T16:19:29;101022.97;;;11.32;100.00
20444;BME280;10381;53.730;10.010;2023-04-15T16:23:30;101018.84;;;11.18;100.00
20444;BME280;10381;53.730;10.010;2023-04-15T16:27:30;101024.59;;;11.14;100.00
20444;BME280;10381;53.730;10.010;2023-04-15T16:31:30;101029.31;;;11.10;100.00
20444;BME280;10381;53.730;10.010;2023-04-15T16:35:31;101036.53;;;11.08;100.00
20444;BME280;10381;53.730;10.010;2023-04-15T16:39:31;101037.97;;;11.12;100.00
20444;BME280;10381;53.730;10.010;2023-04-15T16:43:31;101043.81;;;11.16;100.00
20444;BME280;10381;53.730;10.010;2023-04-15T16:47:32;101057.47;;;11.11;100.00
20444;BME280;10381;53.730;10.010;2023-04-15T16:51:32;101059.41;;;10.99;100.00
20444;BME280;10381;53.730;10.010;2023-04-15T16:55:32;101063.66;;;10.91;100.00
20444;BME280;10381;53.730;10.010;2023-04-15T16:59:33;101057.53;;;10.90;100.00
20444;BME280;10381;53.730;10.010;2023-04-15T17:03:33;101072.41;;;10.81;100.00
20444;BME280;10381;53.730;10.010;2023-04-15T17:07:33;101077.38;;;10.75;100.00
20444;BME280;10381;53.730;10.010;2023-04-15T17:11:33;101087.97;;;10.75;100.00
20444;BME280;10381;53.730;10.010;2023-04-15T17:15:34;101094.75;;;10.68;100.00
20444;BME280;10381;53.730;10.010;2023-04-15T17:19:34;101087.84;;;10.55;100.00
20444;BME280;10381;53.730;10.010;2023-04-15T17:23:35;101090.63;;;10.54;100.00
20444;BME280;10381;53.730;10.010;2023-04-15T17:27:35;101093.91;;;10.46;100.00
20444;BME280;10381;53.730;10.010;2023-04-15T17:31:37;101108.75;;;10.37;100.00
20444;BME280;10381;53.730;10.010;2023-04-15T17:35:38;101116.00;;;10.35;100.00
20444;BME280;10381;53.730;10.010;2023-04-15T17:39:38;101117.09;;;10.33;100.00
20444;BME280;10381;53.730;10.010;2023-04-15T17:43:39;101114.88;;;10.27;100.00
20444;BME280;10381;53.730;10.010;2023-04-15T17:47:39;101125.16;;;10.20;100.00
20444;BME280;10381;53.730;10.010;2023-04-15T17:51:40;101130.38;;;10.10;100.00
20444;BME280;10381;53.730;10.010;2023-04-15T17:55:40;101137.50;;;9.98;100.00
20444;BME280;10381;53.730;10.010;2023-04-15T17:59:41;101137.03;;;9.82;100.00
20444;BME280;10381;53.730;10.010;2023-04-15T18:03:47;101157.13;;;9.62;100.00
20444;BME280;10381;53.730;10.010;2023-04-15T18:07:50;101155.31;;;9.51;100.00
20444;BME280;10381;53.730;10.010;2023-04-15T18:11:50;101163.94;;;9.42;100.00
20444;BME280;10381;53.730;10.010;2023-04-15T18:15:50;101176.09;;;9.33;100.00
20444;BME280;10381;53.730;10.010;2023-04-15T18:19:50;101181.50;;;9.32;100.00
20444;BME280;10381;53.730;10.010;2023-04-15T18:23:51;101190.63;;;9.28;100.00
20444;BME280;10381;53.730;10.010;2023-04-15T18:27:53;101200.34;;;9.27;100.00
20444;BME280;10381;53.730;10.010;2023-04-15T18:31:54;101202.41;;;9.24;100.00
20444;BME280;10381;53.730;10.010;2023-04-15T18:35:54;101205.16;;;9.22;100.00
20444;BME280;10381;53.730;10.010;2023-04-15T18:39:57;101214.16;;;9.20;100.00
20444;BME280;10381;53.730;10.010;2023-04-15T18:43:57;101222.78;;;9.10;100.00
20444;BME280;10381;53.730;10.010;2023-04-15T18:47:57;101236.53;;;8.91;100.00
20444;BME280;10381;53.730;10.010;2023-04-15T18:51:58;101236.13;;;8.85;100.00
20444;BME280;10381;53.730;10.010;2023-04-15T18:55:58;101239.34;;;8.77;100.00
20444;BME280;10381;53.730;10.010;2023-04-15T19:00:02;101236.84;;;8.76;100.00
20444;BME280;10381;53.730;10.010;2023-04-15T19:04:02;101248.44;;;8.73;100.00
20444;BME280;10381;53.730;10.010;2023-04-15T19:08:03;101252.28;;;8.69;100.00
20444;BME280;10381;53.730;10.010;2023-04-15T19:12:03;101261.38;;;8.65;100.00
20444;BME280;10381;53.730;10.010;2023-04-15T19:16:03;101260.78;;;8.61;100.00
20444;BME280;10381;53.730;10.010;2023-04-15T19:20:04;101270.47;;;8.61;100.00
20444;BME280;10381;53.730;10.010;2023-04-15T19:24:05;101272.41;;;8.59;100.00
20444;BME280;10381;53.730;10.010;2023-04-15T19:28:05;101276.94;;;8.57;100.00
20444;BME280;10381;53.730;10.010;2023-04-15T19:32:06;101288.34;;;8.57;100.00
20444;BME280;10381;53.730;10.010;2023-04-15T19:36:06;101289.50;;;8.53;100.00
20444;BME280;10381;53.730;10.010;2023-04-15T19:40:07;101304.53;;;8.52;100.00
20444;BME280;10381;53.730;10.010;2023-04-15T19:44:08;101306.41;;;8.50;100.00
20444;BME280;10381;53.730;10.010;2023-04-15T19:48:11;101312.16;;;8.44;100.00
20444;BME280;10381;53.730;10.010;2023-04-15T19:52:12;101311.72;;;8.38;100.00
20444;BME280;10381;53.730;10.010;2023-04-15T19:56:13;101320.38;;;8.27;100.00
20444;BME280;10381;53.730;10.010;2023-04-15T20:00:13;101315.41;;;8.22;100.00
20444;BME280;10381;53.730;10.010;2023-04-15T20:04:13;101326.19;;;8.19;100.00
20444;BME280;10381;53.730;10.010;2023-04-15T20:08:14;101320.16;;;8.17;100.00
20444;BME280;10381;53.730;10.010;2023-04-15T20:12:14;101323.13;;;8.13;100.00
20444;BME280;10381;53.730;10.010;2023-04-15T20:16:14;101334.63;;;8.11;100.00
20444;BME280;10381;53.730;10.010;2023-04-15T20:20:15;101347.00;;;8.11;100.00
20444;BME280;10381;53.730;10.010;2023-04-15T20:24:15;101346.56;;;8.04;100.00
20444;BME280;10381;53.730;10.010;2023-04-15T20:28:16;101348.91;;;7.96;100.00
20444;BME280;10381;53.730;10.010;2023-04-15T20:32:18;101357.31;;;7.88;100.00
20444;BME280;10381;53.730;10.010;2023-04-15T20:36:18;101369.13;;;7.83;100.00
20444;BME280;10381;53.730;10.010;2023-04-15T20:40:18;101361.63;;;7.77;100.00
20444;BME280;10381;53.730;10.010;2023-04-15T20:44:19;101361.22;;;7.70;100.00